createdAt,value
2018-05-14T00:01:06.216Z,17.13
2018-05-14T00:03:33.750Z,16.10
2018-05-14T00:06:01.289Z,15.00
2018-05-14T00:08:28.806Z,15.80
2018-05-14T00:10:56.409Z,16.43
2018-05-14T00:13:23.934Z,14.10
2018-05-14T00:15:51.457Z,14.97
2018-05-14T00:18:19.016Z,14.27
2018-05-14T00:20:46.572Z,13.53
2018-05-14T00:23:14.166Z,13.70
2018-05-14T00:25:41.690Z,13.37
2018-05-14T00:28:09.221Z,13.03
2018-05-14T00:30:36.731Z,13.70
2018-05-14T00:33:04.318Z,12.63
2018-05-14T00:35:31.845Z,12.27
2018-05-14T00:38:00.005Z,11.60
2018-05-14T00:40:27.566Z,10.13
2018-05-14T00:42:55.073Z,10.27
2018-05-14T00:45:22.621Z,8.87
2018-05-14T00:47:50.930Z,9.17
2018-05-14T00:50:18.459Z,9.23
2018-05-14T00:52:46.766Z,9.83
2018-05-14T00:55:17.169Z,8.70
2018-05-14T00:57:45.456Z,9.20
2018-05-14T01:00:12.984Z,8.60
2018-05-14T01:02:40.513Z,7.20
2018-05-14T01:05:08.033Z,7.50
2018-05-14T01:07:35.586Z,7.20
2018-05-14T01:10:03.119Z,6.53
2018-05-14T01:12:30.696Z,7.13
2018-05-14T01:14:59.009Z,7.10
2018-05-14T01:17:26.518Z,6.70
2018-05-14T01:19:54.862Z,7.97
2018-05-14T01:22:22.374Z,7.20
2018-05-14T01:24:55.490Z,6.83
2018-05-14T01:27:35.537Z,6.17
2018-05-14T01:30:03.099Z,6.10
2018-05-14T01:32:30.631Z,6.03
2018-05-14T01:34:58.181Z,5.90
2018-05-14T01:37:26.490Z,5.43
2018-05-14T01:39:53.998Z,5.67
2018-05-14T01:42:21.505Z,4.73
2018-05-14T01:44:49.014Z,4.87
2018-05-14T01:47:16.634Z,5.10
2018-05-14T01:49:44.150Z,4.53
2018-05-14T01:52:12.417Z,5.60
2018-05-14T01:54:40.774Z,5.17
2018-05-14T01:57:08.328Z,4.63
2018-05-14T01:59:35.846Z,5.17
2018-05-14T02:02:03.406Z,5.00
2018-05-14T02:04:30.956Z,4.70
2018-05-14T02:06:58.528Z,4.83
2018-05-14T02:09:26.050Z,4.60
2018-05-14T02:11:54.329Z,4.67
2018-05-14T02:14:22.652Z,4.77
2018-05-14T02:16:50.181Z,5.57
2018-05-14T02:19:17.694Z,5.10
2018-05-14T02:21:45.237Z,6.07
2018-05-14T02:24:12.762Z,5.60
2018-05-14T02:26:40.269Z,6.80
2018-05-14T02:29:07.799Z,6.57
2018-05-14T02:31:35.309Z,6.27
2018-05-14T02:34:02.844Z,6.50
2018-05-14T02:36:30.420Z,7.20
2018-05-14T02:38:57.950Z,7.40
2018-05-14T02:41:25.473Z,7.87
2018-05-14T02:43:53.014Z,7.10
2018-05-14T02:46:21.277Z,6.30
2018-05-14T02:48:48.964Z,6.50
2018-05-14T02:51:16.495Z,6.10
2018-05-14T02:53:44.069Z,7.20
2018-05-14T02:56:12.339Z,6.40
2018-05-14T02:58:39.838Z,6.87
2018-05-14T03:01:07.363Z,7.37
2018-05-14T03:03:34.881Z,8.90
2018-05-14T03:06:02.474Z,8.03
2018-05-14T03:08:30.768Z,8.70
2018-05-14T03:10:58.282Z,7.57
2018-05-14T03:13:25.841Z,8.17
2018-05-14T03:15:53.993Z,8.00
2018-05-14T03:18:21.500Z,8.60
2018-05-14T03:20:49.793Z,8.70
2018-05-14T03:23:17.401Z,9.47
2018-05-14T03:25:44.948Z,8.77
2018-05-14T03:28:12.508Z,9.13
2018-05-14T03:30:40.024Z,9.53
2018-05-14T03:33:08.318Z,9.57
2018-05-14T03:35:35.821Z,8.50
2018-05-14T03:38:03.435Z,8.90
2018-05-14T03:40:30.962Z,7.80
2018-05-14T03:42:58.509Z,9.17
2018-05-14T03:45:26.021Z,8.27
2018-05-14T03:47:53.539Z,8.30
2018-05-14T03:50:21.094Z,8.83
2018-05-14T03:52:48.611Z,8.77
2018-05-14T03:55:16.149Z,9.70
2018-05-14T03:57:43.713Z,8.67
2018-05-14T04:00:23.070Z,9.17
2018-05-14T04:03:02.448Z,8.50
2018-05-14T04:05:42.747Z,8.80
2018-05-14T04:08:10.276Z,8.83
2018-05-14T04:10:38.532Z,8.30
2018-05-14T04:13:06.063Z,8.17
2018-05-14T04:15:33.581Z,8.87
2018-05-14T04:18:01.112Z,8.33
2018-05-14T04:20:28.634Z,8.67
2018-05-14T04:22:56.152Z,8.50
2018-05-14T04:25:23.670Z,8.50
2018-05-14T04:27:51.222Z,8.97
2018-05-14T04:30:18.781Z,9.27
2018-05-14T04:32:46.270Z,9.50
2018-05-14T04:35:15.505Z,9.77
2018-05-14T04:37:43.021Z,10.10
2018-05-14T04:40:10.537Z,10.80
2018-05-14T04:42:38.815Z,8.77
2018-05-14T04:45:06.338Z,9.07
2018-05-14T04:47:33.851Z,8.73
2018-05-14T04:50:01.383Z,9.10
2018-05-14T04:52:28.904Z,8.00
2018-05-14T04:54:57.194Z,8.00
2018-05-14T04:57:24.707Z,8.13
2018-05-14T04:59:52.229Z,8.13
2018-05-14T05:02:19.712Z,8.33
2018-05-14T05:04:47.233Z,8.10
2018-05-14T05:07:14.768Z,7.60
2018-05-14T05:09:42.304Z,8.20
2018-05-14T05:12:09.872Z,7.83
2018-05-14T05:14:37.410Z,6.87
2018-05-14T05:17:04.997Z,7.80
2018-05-14T05:19:33.329Z,6.70
2018-05-14T05:22:00.864Z,6.80
2018-05-14T05:24:28.373Z,7.50
2018-05-14T05:26:55.906Z,7.00
2018-05-14T05:29:23.454Z,6.73
2018-05-14T05:31:50.984Z,6.37
2018-05-14T05:34:18.524Z,5.90
2018-05-14T05:36:46.820Z,6.27
2018-05-14T05:39:14.326Z,5.40
2018-05-14T05:41:41.859Z,5.50
2018-05-14T05:44:09.386Z,5.50
2018-05-14T05:46:37.682Z,5.97
2018-05-14T05:49:05.270Z,6.70
2018-05-14T05:51:32.804Z,7.17
2018-05-14T05:54:00.402Z,8.30
2018-05-14T05:56:27.904Z,8.67
2018-05-14T05:58:55.466Z,7.87
2018-05-14T06:01:23.253Z,9.00
2018-05-14T06:03:50.564Z,7.73
2018-05-14T06:06:18.855Z,8.23
2018-05-14T06:08:47.145Z,8.00
2018-05-14T06:11:14.717Z,8.53
2018-05-14T06:13:42.237Z,9.47
2018-05-14T06:16:09.748Z,8.70
2018-05-14T06:18:37.283Z,8.67
2018-05-14T06:21:04.804Z,10.43
2018-05-14T06:23:32.368Z,9.80
2018-05-14T06:26:00.624Z,9.67
2018-05-14T06:28:28.167Z,10.83
2018-05-14T06:30:55.800Z,8.97
2018-05-14T06:33:23.353Z,9.03
2018-05-14T06:35:51.114Z,8.27
2018-05-14T06:38:19.281Z,8.50
2018-05-14T06:40:46.794Z,7.17
2018-05-14T06:43:14.302Z,6.87
2018-05-14T06:45:41.825Z,6.50
2018-05-14T06:48:09.336Z,6.00
2018-05-14T06:53:36.616Z,5.80
2018-05-14T06:56:04.164Z,6.00
2018-05-14T06:58:31.689Z,6.77
2018-05-14T07:00:59.193Z,6.83
2018-05-14T07:03:26.693Z,7.30
2018-05-14T07:05:55.099Z,6.77
2018-05-14T07:08:23.452Z,7.80
2018-05-14T07:10:50.968Z,7.73
2018-05-14T07:13:18.498Z,7.80
2018-05-14T07:15:46.025Z,8.17
2018-05-14T07:18:13.598Z,8.33
2018-05-14T07:20:41.880Z,9.10
2018-05-14T07:23:10.209Z,9.17
2018-05-14T07:25:37.765Z,8.23
2018-05-14T07:28:05.293Z,9.83
2018-05-14T07:30:32.792Z,7.67
2018-05-14T07:33:00.290Z,9.50
2018-05-14T07:35:28.611Z,9.40
2018-05-14T07:37:56.116Z,10.40
2018-05-14T07:40:24.454Z,10.53
2018-05-14T07:42:51.950Z,10.20
2018-05-14T07:45:19.515Z,10.27
2018-05-14T07:47:47.057Z,10.97
2018-05-14T07:50:14.650Z,12.10
2018-05-14T07:52:42.933Z,14.33
2018-05-14T07:55:10.433Z,12.50
2018-05-14T07:57:38.024Z,12.03
2018-05-14T08:00:05.561Z,11.87
2018-05-14T08:02:33.116Z,12.50
2018-05-14T08:05:00.660Z,12.00
2018-05-14T08:07:28.172Z,13.30
2018-05-14T08:09:56.461Z,11.67
2018-05-14T08:12:24.002Z,12.57
2018-05-14T08:14:51.563Z,12.73
2018-05-14T08:17:19.872Z,11.40
2018-05-14T08:19:47.406Z,11.93
2018-05-14T08:22:15.708Z,12.60
2018-05-14T08:24:43.292Z,11.67
2018-05-14T08:27:10.807Z,12.83
2018-05-14T08:29:38.340Z,13.10
2018-05-14T08:32:05.897Z,13.63
2018-05-14T08:34:33.438Z,14.73
2018-05-14T08:37:01.048Z,13.67
2018-05-14T08:39:28.627Z,13.57
2018-05-14T08:41:56.059Z,14.17
2018-05-14T08:44:23.585Z,15.03
2018-05-14T08:46:51.080Z,12.60
2018-05-14T08:49:18.620Z,14.43
2018-05-14T08:51:46.171Z,14.97
2018-05-14T08:54:13.743Z,13.70
2018-05-14T08:56:41.274Z,14.70
2018-05-14T08:59:08.808Z,15.37
2018-05-14T09:01:36.401Z,14.13
2018-05-14T09:04:03.970Z,15.10
2018-05-14T09:06:31.499Z,14.33
2018-05-14T09:08:59.054Z,15.30
2018-05-14T09:11:26.594Z,15.27
2018-05-14T09:13:54.177Z,16.03
2018-05-14T09:16:21.699Z,17.67
2018-05-14T09:18:49.235Z,18.30
2018-05-14T09:21:17.522Z,17.30
2018-05-14T09:23:45.077Z,18.27
2018-05-14T09:26:13.399Z,18.57
2018-05-14T09:28:40.907Z,18.50
2018-05-14T09:31:09.240Z,19.03
2018-05-14T09:33:37.341Z,18.00
2018-05-14T09:36:04.885Z,18.47
2018-05-14T09:38:32.484Z,18.67
2018-05-14T09:41:00.022Z,18.67
2018-05-14T09:43:28.333Z,19.80
2018-05-14T09:45:56.476Z,18.13
2018-05-14T09:48:24.761Z,19.80
2018-05-14T09:50:52.345Z,19.30
2018-05-14T09:53:19.864Z,19.50
2018-05-14T09:55:47.414Z,18.73
2018-05-14T09:58:14.975Z,19.00
2018-05-14T10:00:42.545Z,17.87
2018-05-14T10:03:10.100Z,19.13
2018-05-14T10:05:37.606Z,17.80
2018-05-14T10:08:05.137Z,19.17
2018-05-14T10:10:33.462Z,18.33
2018-05-14T10:13:01.094Z,20.60
2018-05-14T10:15:28.532Z,18.77
2018-05-14T10:17:56.825Z,18.30
2018-05-14T10:20:24.350Z,18.90
2018-05-14T10:22:52.606Z,19.53
2018-05-14T10:25:20.121Z,20.27
2018-05-14T10:27:47.652Z,18.90
2018-05-14T10:30:15.940Z,20.03
2018-05-14T10:32:43.484Z,19.20
2018-05-14T10:35:11.847Z,20.70
2018-05-14T10:37:39.337Z,22.43
2018-05-14T10:40:06.847Z,22.57
2018-05-14T10:42:34.404Z,21.80
2018-05-14T10:45:01.926Z,21.30
2018-05-14T10:47:29.415Z,20.80
2018-05-14T10:49:56.948Z,21.27
2018-05-14T10:52:24.462Z,20.47
2018-05-14T10:54:52.783Z,19.33
2018-05-14T10:57:20.313Z,21.10
2018-05-14T10:59:48.599Z,19.00
2018-05-14T11:02:16.129Z,20.87
2018-05-14T11:04:43.667Z,19.33
2018-05-14T11:07:11.193Z,22.00
2018-05-14T11:09:38.734Z,18.77
2018-05-14T11:12:06.260Z,19.53
2018-05-14T11:14:33.839Z,18.30
2018-05-14T11:17:01.387Z,18.70
2018-05-14T11:19:28.940Z,17.70
2018-05-14T11:21:56.477Z,18.67
2018-05-14T11:24:24.076Z,18.33
2018-05-14T11:26:51.538Z,18.67
2018-05-14T11:29:19.841Z,18.20
2018-05-14T11:31:47.436Z,18.27
2018-05-14T11:34:14.925Z,17.73
2018-05-14T11:36:43.203Z,18.20
2018-05-14T11:39:10.737Z,19.33
2018-05-14T11:41:38.272Z,18.23
2018-05-14T11:44:05.800Z,20.37
2018-05-14T11:58:16.407Z,23.40
2018-05-14T12:00:43.910Z,22.80
2018-05-14T12:03:11.597Z,23.87
2018-05-14T12:05:39.048Z,22.50
2018-05-14T12:08:06.585Z,22.87
2018-05-14T12:10:34.135Z,22.30
2018-05-14T12:13:01.668Z,22.83
2018-05-14T12:15:29.982Z,21.90
2018-05-14T12:17:57.541Z,21.50
2018-05-14T12:20:25.073Z,20.73
2018-05-14T12:22:53.438Z,20.23
2018-05-14T12:25:21.789Z,18.30
2018-05-14T12:27:49.314Z,18.97
2018-05-14T12:30:16.819Z,17.40
2018-05-14T12:32:44.373Z,19.20
2018-05-14T12:35:11.891Z,19.73
2018-05-14T12:37:39.527Z,20.00
2018-05-14T12:40:06.976Z,20.03
2018-05-14T12:42:35.291Z,20.30
2018-05-14T12:45:02.813Z,18.90
2018-05-14T12:47:31.130Z,18.80
2018-05-14T12:49:58.658Z,19.47
2018-05-14T12:52:26.226Z,20.50
2018-05-14T12:54:53.752Z,19.63
2018-05-14T12:57:21.306Z,22.60
2018-05-14T12:59:49.544Z,23.37
2018-05-14T13:02:17.078Z,25.93
2018-05-14T13:04:44.603Z,23.40
2018-05-14T13:07:12.124Z,25.10
2018-05-14T13:09:39.663Z,24.70
2018-05-14T13:12:07.212Z,25.17
2018-05-14T13:14:34.752Z,24.80
2018-05-14T13:17:02.255Z,24.10
2018-05-14T13:19:29.787Z,25.20
2018-05-14T13:21:57.294Z,25.40
2018-05-14T13:24:24.841Z,26.27
2018-05-14T13:26:52.358Z,27.83
2018-05-14T13:29:19.895Z,29.13
2018-05-14T13:31:48.224Z,28.00
2018-05-14T13:34:15.781Z,28.40
2018-05-14T13:36:43.290Z,27.53
2018-05-14T13:39:11.584Z,29.20
2018-05-14T13:41:41.460Z,30.40
2018-05-14T13:44:09.868Z,31.30
2018-05-14T13:46:37.297Z,30.20
2018-05-14T13:49:04.827Z,31.63
2018-05-14T13:51:32.369Z,32.83
2018-05-14T13:53:59.875Z,30.63
2018-05-14T13:56:27.449Z,33.07
2018-05-14T13:58:55.769Z,32.27
2018-05-14T14:01:23.351Z,30.70
2018-05-14T14:03:50.881Z,32.77
2018-05-14T14:06:18.440Z,29.87
2018-05-14T14:08:46.035Z,34.17
2018-05-14T14:11:13.580Z,32.83
2018-05-14T14:13:41.104Z,32.17
2018-05-14T14:16:08.619Z,33.60
2018-05-14T14:18:36.148Z,34.13
2018-05-14T14:21:03.699Z,34.30
2018-05-14T14:23:31.281Z,34.83
2018-05-14T14:25:58.732Z,33.40
2018-05-14T14:28:32.212Z,33.80
2018-05-14T14:30:59.742Z,32.83
2018-05-14T14:33:28.057Z,35.77
2018-05-14T14:35:55.633Z,35.10
2018-05-14T14:38:23.197Z,34.33
2018-05-14T14:40:50.726Z,35.40
2018-05-14T14:43:18.320Z,36.37
2018-05-14T14:45:45.851Z,35.53
2018-05-14T14:48:13.460Z,36.43
2018-05-14T14:50:41.019Z,34.97
2018-05-14T14:53:08.573Z,38.07
2018-05-14T14:55:36.174Z,36.63
2018-05-14T14:58:03.720Z,37.27
2018-05-14T15:00:32.185Z,38.37
2018-05-14T15:03:00.488Z,36.33
2018-05-14T15:05:28.006Z,36.73
2018-05-14T15:07:55.530Z,37.13
2018-05-14T15:10:23.034Z,38.37
2018-05-14T15:12:51.342Z,38.70
2018-05-14T15:15:18.868Z,38.37
2018-05-14T15:20:40.570Z,38.10
2018-05-14T15:23:08.091Z,37.80
2018-05-14T15:25:35.630Z,38.00
2018-05-14T15:28:03.942Z,38.50
2018-05-14T15:30:31.563Z,38.17
2018-05-14T15:32:59.841Z,39.60
2018-05-14T15:35:27.357Z,40.50
2018-05-14T15:37:54.854Z,42.33
2018-05-14T15:40:22.435Z,42.13
2018-05-14T15:42:50.026Z,42.23
2018-05-14T15:45:17.552Z,41.67
2018-05-14T15:47:45.081Z,41.23
2018-05-14T15:50:12.621Z,43.60
2018-05-14T15:52:40.105Z,41.87
2018-05-14T15:55:07.647Z,39.87
2018-05-14T15:57:35.143Z,41.77
2018-05-14T16:00:02.731Z,41.13
2018-05-14T16:02:30.261Z,43.17
2018-05-14T16:04:57.819Z,43.80
2018-05-14T16:07:26.166Z,41.67
2018-05-14T16:09:53.678Z,43.50
2018-05-14T16:12:21.222Z,43.10
2018-05-14T16:14:54.478Z,41.70
2018-05-14T16:17:22.038Z,43.83
2018-05-14T16:19:49.541Z,42.07
2018-05-14T16:22:17.076Z,42.40
2018-05-14T16:24:45.342Z,42.70
2018-05-14T16:27:12.870Z,46.00
2018-05-14T16:29:40.423Z,41.80
2018-05-14T16:32:08.008Z,42.50
2018-05-14T16:34:35.603Z,43.27
2018-05-14T16:37:05.057Z,43.83
2018-05-14T16:39:32.624Z,42.17
2018-05-14T16:42:00.303Z,43.20
2018-05-14T16:44:27.773Z,45.93
2018-05-14T16:46:56.138Z,43.03
2018-05-14T16:49:23.713Z,45.07
2018-05-14T16:51:52.000Z,46.10
2018-05-14T16:54:19.545Z,49.17
2018-05-14T16:56:47.062Z,48.40
2018-05-14T16:59:14.632Z,49.80
2018-05-14T17:01:42.167Z,47.93
2018-05-14T17:04:09.766Z,47.83
2018-05-14T17:06:37.336Z,46.90
2018-05-14T17:09:05.707Z,50.57
2018-05-14T17:11:33.288Z,48.73
2018-05-14T17:14:00.830Z,49.70
2018-05-14T17:16:29.166Z,52.23
2018-05-14T17:18:57.277Z,54.00
2018-05-14T17:21:25.602Z,56.07
2018-05-14T17:23:53.177Z,56.00
2018-05-14T17:26:20.748Z,59.17
2018-05-14T17:28:48.280Z,59.87
2018-05-14T17:31:15.857Z,56.33
2018-05-14T17:33:43.436Z,53.57
2018-05-14T17:36:11.025Z,55.00
2018-05-14T17:41:41.649Z,55.40
2018-05-14T17:44:09.209Z,57.87
2018-05-14T17:46:36.746Z,51.73
2018-05-14T17:49:05.330Z,58.90
2018-05-14T17:51:32.885Z,60.20
2018-05-14T17:54:00.419Z,55.23
2018-05-14T17:56:28.006Z,58.00
2018-05-14T17:58:55.611Z,54.63
2018-05-14T18:01:23.223Z,56.47
2018-05-14T18:03:50.751Z,52.20
2018-05-14T18:06:18.331Z,55.33
2018-05-14T18:08:57.340Z,55.60
2018-05-14T18:11:24.961Z,50.60
2018-05-14T18:13:52.561Z,48.83
2018-05-14T18:16:23.111Z,52.20
2018-05-14T18:18:50.928Z,51.47
2018-05-14T18:21:37.129Z,51.90
2018-05-14T18:24:05.480Z,54.90
2018-05-14T18:26:38.824Z,50.00
2018-05-14T18:29:27.727Z,54.77
2018-05-14T18:32:07.625Z,58.30
2018-05-14T18:37:36.582Z,54.07
2018-05-14T18:40:04.155Z,56.37
2018-05-14T18:42:31.719Z,52.23
2018-05-14T18:44:59.253Z,56.27
2018-05-14T18:47:26.879Z,55.47
2018-05-14T18:49:54.439Z,58.60
2018-05-14T18:52:21.971Z,58.20
2018-05-14T18:54:50.293Z,57.40
2018-05-14T18:57:17.874Z,61.40
2018-05-14T18:59:45.422Z,51.47
2018-05-14T19:02:12.972Z,53.43
2018-05-14T19:04:40.481Z,51.77
2018-05-14T19:07:08.034Z,54.80
2018-05-14T19:09:35.575Z,58.17
2018-05-14T19:12:03.083Z,59.27
2018-05-14T19:14:30.602Z,57.30
2018-05-14T19:17:03.888Z,52.53
2018-05-14T19:19:31.437Z,52.47
2018-05-14T19:22:24.698Z,52.10
2018-05-14T19:24:52.271Z,48.70
2018-05-14T19:27:19.894Z,52.13
2018-05-14T19:29:47.468Z,49.40
2018-05-14T19:32:14.993Z,49.93
2018-05-14T19:34:48.066Z,43.77
2018-05-14T19:37:16.364Z,48.17
2018-05-14T19:39:49.737Z,48.20
2018-05-14T19:42:18.039Z,53.47
2018-05-14T19:44:45.552Z,53.57
2018-05-14T19:47:13.127Z,57.03
2018-05-14T19:49:41.424Z,58.47
2018-05-14T19:52:09.028Z,59.17
2018-05-14T19:54:36.572Z,61.40
2018-05-14T19:57:04.162Z,57.17
2018-05-14T19:59:31.717Z,60.87
2018-05-14T20:01:59.289Z,61.10
2018-05-14T20:04:26.853Z,65.13
2018-05-14T20:06:54.462Z,74.57
2018-05-14T20:09:21.985Z,58.17
2018-05-14T20:11:50.328Z,60.60
2018-05-14T20:14:17.912Z,57.73
2018-05-14T20:16:46.211Z,52.37
2018-05-14T20:19:14.558Z,57.00
2018-05-14T20:21:42.106Z,55.10
2018-05-14T20:24:09.749Z,54.67
2018-05-14T20:26:37.341Z,52.50
2018-05-14T20:29:04.941Z,49.37
2018-05-14T20:31:32.490Z,51.27
2018-05-14T20:34:00.044Z,56.80
2018-05-14T20:36:27.581Z,57.97
2018-05-14T20:38:55.141Z,57.07
2018-05-14T20:41:23.453Z,58.37
2018-05-14T20:43:51.025Z,60.93
2018-05-14T20:46:18.546Z,66.57
2018-05-14T20:48:46.883Z,60.33
2018-05-14T20:51:14.488Z,59.27
2018-05-14T20:53:42.790Z,56.97
2018-05-14T20:56:10.353Z,48.10
2018-05-14T20:58:37.998Z,64.73
2018-05-14T21:01:05.578Z,49.30
2018-05-14T21:03:33.081Z,56.30
2018-05-14T21:06:00.617Z,62.47
2018-05-14T21:08:28.157Z,53.17
2018-05-14T21:10:55.702Z,53.77
2018-05-14T21:13:23.285Z,48.00
2018-05-14T21:15:50.838Z,54.67
2018-05-14T21:18:18.349Z,54.10
2018-05-14T21:20:46.730Z,57.60
2018-05-14T21:23:14.286Z,61.60
2018-05-14T21:25:42.590Z,67.20
2018-05-14T21:28:10.179Z,62.97
2018-05-14T21:30:37.772Z,63.80
2018-05-14T21:33:05.322Z,66.03
2018-05-14T21:35:32.893Z,69.67
2018-05-14T21:38:00.447Z,80.10
2018-05-14T21:40:28.026Z,75.80
2018-05-14T21:42:56.368Z,75.00
2018-05-14T21:45:23.906Z,73.20
2018-05-14T21:47:51.473Z,86.67
2018-05-14T21:50:19.107Z,84.30
2018-05-14T21:52:46.618Z,82.70
2018-05-14T21:55:15.102Z,83.73
2018-05-14T21:57:42.696Z,81.20
2018-05-14T22:00:11.214Z,83.33
2018-05-14T22:02:38.863Z,83.10
2018-05-14T22:05:07.195Z,84.17
2018-05-14T22:07:34.814Z,83.10
2018-05-14T22:10:03.485Z,85.90
2018-05-14T22:12:31.070Z,86.13
2018-05-14T22:14:58.634Z,82.30
2018-05-14T22:17:26.187Z,81.57
2018-05-14T22:19:53.725Z,88.37
2018-05-14T22:22:21.281Z,94.07
2018-05-14T22:24:48.778Z,80.60
2018-05-14T22:27:16.315Z,78.37
2018-05-14T22:29:43.855Z,70.50
2018-05-14T22:32:11.407Z,67.37
2018-05-14T22:34:38.937Z,77.20
2018-05-14T22:37:07.256Z,72.13
2018-05-14T22:39:34.842Z,74.10
2018-05-14T22:42:02.385Z,76.27
2018-05-14T22:44:29.914Z,67.43
2018-05-14T22:46:57.493Z,71.03
2018-05-14T22:49:25.074Z,72.10
2018-05-14T22:51:52.630Z,73.43
2018-05-14T22:54:42.002Z,69.67
2018-05-14T22:57:09.552Z,75.30
2018-05-14T22:59:37.122Z,81.77
2018-05-14T23:02:04.674Z,77.83
2018-05-14T23:04:32.195Z,84.07
2018-05-14T23:06:59.738Z,92.70
2018-05-14T23:09:27.285Z,94.27
2018-05-14T23:11:54.845Z,79.37
2018-05-14T23:14:23.159Z,93.50
2018-05-14T23:16:50.735Z,77.50
2018-05-14T23:19:18.244Z,77.57
2018-05-14T23:21:46.554Z,85.10
2018-05-14T23:24:14.111Z,89.37
2018-05-14T23:26:41.640Z,89.13
2018-05-14T23:29:09.942Z,96.00
2018-05-14T23:31:37.510Z,87.37
2018-05-14T23:34:05.045Z,84.03
2018-05-14T23:36:32.564Z,86.23
2018-05-14T23:39:00.146Z,84.97
2018-05-14T23:41:28.484Z,67.50
2018-05-14T23:43:56.047Z,65.00
2018-05-14T23:46:23.596Z,62.07
2018-05-14T23:48:51.224Z,60.73
2018-05-14T23:51:18.783Z,62.47
2018-05-14T23:53:46.344Z,54.00
2018-05-14T23:56:13.874Z,57.57
2018-05-14T23:58:41.429Z,58.60
